sensor_id;sensor_type;location;lat;lon;timestamp;P1;durP1;ratioP1;P2;durP2;ratioP2
51384;SDS011;37478;55.682;37.462;2022-11-20T00:02:03;16.13;;;8.80;;
51384;SDS011;37478;55.682;37.462;2022-11-20T00:04:28;19.73;;;9.40;;
51384;SDS011;37478;55.682;37.462;2022-11-20T00:06:53;17.20;;;8.25;;
51384;SDS011;37478;55.682;37.462;2022-11-20T00:09:19;16.05;;;9.15;;
51384;SDS011;37478;55.682;37.462;2022-11-20T00:11:44;17.10;;;8.82;;
51384;SDS011;37478;55.682;37.462;2022-11-20T00:14:09;18.60;;;9.73;;
51384;SDS011;37478;55.682;37.462;2022-11-20T00:16:35;19.25;;;9.38;;
51384;SDS011;37478;55.682;37.462;2022-11-20T00:19:00;16.67;;;8.05;;
51384;SDS011;37478;55.682;37.462;2022-11-20T00:21:26;14.93;;;8.48;;
51384;SDS011;37478;55.682;37.462;2022-11-20T00:23:53;20.20;;;8.85;;
51384;SDS011;37478;55.682;37.462;2022-11-20T00:26:19;19.05;;;10.05;;
51384;SDS011;37478;55.682;37.462;2022-11-20T00:28:49;19.20;;;8.73;;
51384;SDS011;37478;55.682;37.462;2022-11-20T00:31:15;22.35;;;11.15;;
51384;SDS011;37478;55.682;37.462;2022-11-20T00:33:40;15.57;;;8.60;;
51384;SDS011;37478;55.682;37.462;2022-11-20T00:36:07;19.63;;;9.73;;
51384;SDS011;37478;55.682;37.462;2022-11-20T00:38:33;18.42;;;9.20;;
51384;SDS011;37478;55.682;37.462;2022-11-20T00:40:59;20.83;;;10.27;;
51384;SDS011;37478;55.682;37.462;2022-11-20T00:43:25;16.35;;;9.73;;
51384;SDS011;37478;55.682;37.462;2022-11-20T00:45:50;25.48;;;11.35;;
51384;SDS011;37478;55.682;37.462;2022-11-20T00:48:16;18.33;;;10.10;;
51384;SDS011;37478;55.682;37.462;2022-11-20T00:50:42;22.38;;;10.52;;
51384;SDS011;37478;55.682;37.462;2022-11-20T00:53:07;18.63;;;10.82;;
51384;SDS011;37478;55.682;37.462;2022-11-20T00:55:33;25.55;;;11.52;;
51384;SDS011;37478;55.682;37.462;2022-11-20T00:57:58;20.50;;;10.50;;
51384;SDS011;37478;55.682;37.462;2022-11-20T01:00:23;19.45;;;11.57;;
51384;SDS011;37478;55.682;37.462;2022-11-20T01:02:49;20.85;;;10.50;;
51384;SDS011;37478;55.682;37.462;2022-11-20T01:05:14;19.55;;;10.43;;
51384;SDS011;37478;55.682;37.462;2022-11-20T01:07:39;17.67;;;9.73;;
51384;SDS011;37478;55.682;37.462;2022-11-20T01:10:05;18.40;;;10.00;;
51384;SDS011;37478;55.682;37.462;2022-11-20T01:12:30;20.58;;;10.25;;
51384;SDS011;37478;55.682;37.462;2022-11-20T01:14:56;17.63;;;9.13;;
51384;SDS011;37478;55.682;37.462;2022-11-20T01:17:21;20.23;;;10.52;;
51384;SDS011;37478;55.682;37.462;2022-11-20T01:19:48;15.18;;;9.10;;
51384;SDS011;37478;55.682;37.462;2022-11-20T01:22:13;17.52;;;8.07;;
51384;SDS011;37478;55.682;37.462;2022-11-20T01:24:39;14.52;;;8.25;;
51384;SDS011;37478;55.682;37.462;2022-11-20T01:27:04;14.77;;;8.07;;
51384;SDS011;37478;55.682;37.462;2022-11-20T01:29:29;14.00;;;7.88;;
51384;SDS011;37478;55.682;37.462;2022-11-20T01:31:54;18.55;;;8.77;;
51384;SDS011;37478;55.682;37.462;2022-11-20T01:34:21;16.23;;;9.13;;
51384;SDS011;37478;55.682;37.462;2022-11-20T01:36:47;18.60;;;9.45;;
51384;SDS011;37478;55.682;37.462;2022-11-20T01:39:14;13.60;;;8.52;;
51384;SDS011;37478;55.682;37.462;2022-11-20T01:41:40;14.13;;;9.13;;
51384;SDS011;37478;55.682;37.462;2022-11-20T01:50:14;15.43;;;8.13;;
51384;SDS011;37478;55.682;37.462;2022-11-20T01:52:44;15.02;;;8.93;;
51384;SDS011;37478;55.682;37.462;2022-11-20T01:55:15;16.33;;;9.10;;
51384;SDS011;37478;55.682;37.462;2022-11-20T01:57:42;19.73;;;8.88;;
51384;SDS011;37478;55.682;37.462;2022-11-20T02:00:10;16.98;;;9.30;;
51384;SDS011;37478;55.682;37.462;2022-11-20T02:02:37;17.63;;;7.90;;
51384;SDS011;37478;55.682;37.462;2022-11-20T02:05:04;17.35;;;8.70;;
51384;SDS011;37478;55.682;37.462;2022-11-20T02:07:31;16.73;;;8.45;;
51384;SDS011;37478;55.682;37.462;2022-11-20T02:09:57;12.77;;;8.73;;
51384;SDS011;37478;55.682;37.462;2022-11-20T02:12:22;15.88;;;8.43;;
51384;SDS011;37478;55.682;37.462;2022-11-20T02:15:06;17.45;;;9.02;;
51384;SDS011;37478;55.682;37.462;2022-11-20T02:17:32;12.57;;;8.50;;
51384;SDS011;37478;55.682;37.462;2022-11-20T02:19:57;15.52;;;8.40;;
51384;SDS011;37478;55.682;37.462;2022-11-20T02:22:30;15.57;;;8.23;;
51384;SDS011;37478;55.682;37.462;2022-11-20T02:24:56;18.00;;;8.90;;
51384;SDS011;37478;55.682;37.462;2022-11-20T02:27:22;15.98;;;8.07;;
51384;SDS011;37478;55.682;37.462;2022-11-20T02:29:55;12.43;;;7.07;;
51384;SDS011;37478;55.682;37.462;2022-11-20T02:32:23;14.73;;;8.13;;
51384;SDS011;37478;55.682;37.462;2022-11-20T02:34:49;17.25;;;9.35;;
51384;SDS011;37478;55.682;37.462;2022-11-20T02:37:15;13.48;;;7.85;;
51384;SDS011;37478;55.682;37.462;2022-11-20T02:39:40;15.98;;;7.78;;
51384;SDS011;37478;55.682;37.462;2022-11-20T02:42:06;13.55;;;8.02;;
51384;SDS011;37478;55.682;37.462;2022-11-20T02:44:32;15.45;;;6.97;;
51384;SDS011;37478;55.682;37.462;2022-11-20T02:46:57;17.58;;;8.75;;
51384;SDS011;37478;55.682;37.462;2022-11-20T02:49:23;16.90;;;8.05;;
51384;SDS011;37478;55.682;37.462;2022-11-20T02:51:49;16.08;;;8.00;;
51384;SDS011;37478;55.682;37.462;2022-11-20T02:54:14;16.60;;;8.20;;
51384;SDS011;37478;55.682;37.462;2022-11-20T02:56:39;16.00;;;8.25;;
51384;SDS011;37478;55.682;37.462;2022-11-20T02:59:05;16.08;;;9.07;;
51384;SDS011;37478;55.682;37.462;2022-11-20T03:01:30;14.95;;;6.95;;
51384;SDS011;37478;55.682;37.462;2022-11-20T03:03:56;15.73;;;8.38;;
51384;SDS011;37478;55.682;37.462;2022-11-20T03:06:21;17.55;;;8.80;;
51384;SDS011;37478;55.682;37.462;2022-11-20T03:08:46;18.38;;;8.57;;
51384;SDS011;37478;55.682;37.462;2022-11-20T03:11:12;19.50;;;8.55;;
51384;SDS011;37478;55.682;37.462;2022-11-20T03:13:37;17.45;;;7.75;;
51384;SDS011;37478;55.682;37.462;2022-11-20T03:16:06;13.95;;;8.07;;
51384;SDS011;37478;55.682;37.462;2022-11-20T03:18:32;14.73;;;8.10;;
51384;SDS011;37478;55.682;37.462;2022-11-20T03:20:57;14.90;;;8.15;;
51384;SDS011;37478;55.682;37.462;2022-11-20T03:23:24;13.98;;;7.70;;
51384;SDS011;37478;55.682;37.462;2022-11-20T03:25:49;14.70;;;8.65;;
51384;SDS011;37478;55.682;37.462;2022-11-20T03:28:14;14.02;;;8.00;;
51384;SDS011;37478;55.682;37.462;2022-11-20T03:30:40;16.67;;;8.07;;
51384;SDS011;37478;55.682;37.462;2022-11-20T03:33:06;15.20;;;7.82;;
51384;SDS011;37478;55.682;37.462;2022-11-20T03:35:31;14.63;;;8.27;;
51384;SDS011;37478;55.682;37.462;2022-11-20T03:37:57;13.68;;;7.40;;
51384;SDS011;37478;55.682;37.462;2022-11-20T03:40:22;19.63;;;9.13;;
51384;SDS011;37478;55.682;37.462;2022-11-20T03:42:47;16.52;;;7.78;;
51384;SDS011;37478;55.682;37.462;2022-11-20T03:45:16;15.68;;;8.35;;
51384;SDS011;37478;55.682;37.462;2022-11-20T03:47:42;13.63;;;7.80;;
51384;SDS011;37478;55.682;37.462;2022-11-20T03:50:08;15.25;;;8.13;;
51384;SDS011;37478;55.682;37.462;2022-11-20T03:52:34;16.95;;;7.93;;
51384;SDS011;37478;55.682;37.462;2022-11-20T03:54:59;14.13;;;8.00;;
51384;SDS011;37478;55.682;37.462;2022-11-20T03:57:24;16.08;;;7.47;;
51384;SDS011;37478;55.682;37.462;2022-11-20T03:59:50;14.50;;;7.75;;
51384;SDS011;37478;55.682;37.462;2022-11-20T04:02:15;14.73;;;7.53;;
51384;SDS011;37478;55.682;37.462;2022-11-20T04:04:40;18.52;;;7.75;;
51384;SDS011;37478;55.682;37.462;2022-11-20T04:07:05;13.85;;;7.72;;
51384;SDS011;37478;55.682;37.462;2022-11-20T04:09:31;13.55;;;6.57;;
51384;SDS011;37478;55.682;37.462;2022-11-20T04:11:56;15.57;;;8.00;;
51384;SDS011;37478;55.682;37.462;2022-11-20T04:14:21;11.55;;;7.25;;
51384;SDS011;37478;55.682;37.462;2022-11-20T04:16:47;14.98;;;7.78;;
51384;SDS011;37478;55.682;37.462;2022-11-20T04:19:13;19.35;;;8.40;;
51384;SDS011;37478;55.682;37.462;2022-11-20T04:21:39;18.65;;;8.43;;
51384;SDS011;37478;55.682;37.462;2022-11-20T04:24:04;15.02;;;7.53;;
51384;SDS011;37478;55.682;37.462;2022-11-20T04:26:30;17.90;;;9.43;;
51384;SDS011;37478;55.682;37.462;2022-11-20T04:28:56;14.30;;;7.90;;
51384;SDS011;37478;55.682;37.462;2022-11-20T04:31:22;18.15;;;8.88;;
51384;SDS011;37478;55.682;37.462;2022-11-20T04:33:48;14.73;;;8.95;;
51384;SDS011;37478;55.682;37.462;2022-11-20T04:38:39;18.27;;;9.00;;
51384;SDS011;37478;55.682;37.462;2022-11-20T04:41:06;15.32;;;7.93;;
51384;SDS011;37478;55.682;37.462;2022-11-20T04:43:32;14.75;;;8.00;;
51384;SDS011;37478;55.682;37.462;2022-11-20T04:45:58;16.58;;;8.38;;
51384;SDS011;37478;55.682;37.462;2022-11-20T04:48:24;17.48;;;8.02;;
51384;SDS011;37478;55.682;37.462;2022-11-20T04:50:49;13.95;;;7.53;;
51384;SDS011;37478;55.682;37.462;2022-11-20T04:53:15;19.35;;;8.45;;
51384;SDS011;37478;55.682;37.462;2022-11-20T04:55:40;17.20;;;7.88;;
51384;SDS011;37478;55.682;37.462;2022-11-20T04:58:06;18.60;;;8.27;;
51384;SDS011;37478;55.682;37.462;2022-11-20T05:00:31;15.75;;;7.82;;
51384;SDS011;37478;55.682;37.462;2022-11-20T05:02:56;17.85;;;9.30;;
51384;SDS011;37478;55.682;37.462;2022-11-20T05:05:22;17.65;;;8.40;;
51384;SDS011;37478;55.682;37.462;2022-11-20T05:07:47;17.48;;;7.55;;
51384;SDS011;37478;55.682;37.462;2022-11-20T05:10:12;17.02;;;7.80;;
51384;SDS011;37478;55.682;37.462;2022-11-20T05:12:38;14.35;;;8.43;;
51384;SDS011;37478;55.682;37.462;2022-11-20T05:15:03;15.63;;;8.00;;
51384;SDS011;37478;55.682;37.462;2022-11-20T05:17:28;19.75;;;9.35;;
51384;SDS011;37478;55.682;37.462;2022-11-20T05:19:54;19.42;;;8.93;;
51384;SDS011;37478;55.682;37.462;2022-11-20T05:22:19;18.85;;;9.50;;
51384;SDS011;37478;55.682;37.462;2022-11-20T05:24:44;15.90;;;8.85;;
51384;SDS011;37478;55.682;37.462;2022-11-20T05:27:10;16.92;;;8.23;;
51384;SDS011;37478;55.682;37.462;2022-11-20T05:29:35;20.35;;;9.85;;
51384;SDS011;37478;55.682;37.462;2022-11-20T05:32:00;16.67;;;8.32;;
51384;SDS011;37478;55.682;37.462;2022-11-20T05:34:26;15.52;;;8.85;;
51384;SDS011;37478;55.682;37.462;2022-11-20T05:36:51;18.45;;;8.27;;
51384;SDS011;37478;55.682;37.462;2022-11-20T05:39:16;20.63;;;11.23;;
51384;SDS011;37478;55.682;37.462;2022-11-20T05:41:41;17.33;;;8.98;;
51384;SDS011;37478;55.682;37.462;2022-11-20T05:44:09;20.45;;;9.98;;
51384;SDS011;37478;55.682;37.462;2022-11-20T05:46:35;24.60;;;9.77;;
51384;SDS011;37478;55.682;37.462;2022-11-20T05:49:00;17.83;;;9.32;;
51384;SDS011;37478;55.682;37.462;2022-11-20T05:51:25;17.58;;;9.55;;
51384;SDS011;37478;55.682;37.462;2022-11-20T05:53:51;22.55;;;10.85;;
51384;SDS011;37478;55.682;37.462;2022-11-20T05:56:17;20.10;;;8.90;;
51384;SDS011;37478;55.682;37.462;2022-11-20T05:58:43;17.50;;;9.05;;
51384;SDS011;37478;55.682;37.462;2022-11-20T06:03:34;22.85;;;10.63;;
51384;SDS011;37478;55.682;37.462;2022-11-20T06:05:59;17.50;;;8.73;;
51384;SDS011;37478;55.682;37.462;2022-11-20T06:08:25;19.20;;;10.10;;
51384;SDS011;37478;55.682;37.462;2022-11-20T06:10:50;20.27;;;10.35;;
51384;SDS011;37478;55.682;37.462;2022-11-20T06:13:16;20.65;;;10.20;;
51384;SDS011;37478;55.682;37.462;2022-11-20T06:15:41;22.38;;;9.38;;
51384;SDS011;37478;55.682;37.462;2022-11-20T06:18:06;20.35;;;10.50;;
51384;SDS011;37478;55.682;37.462;2022-11-20T06:20:32;20.42;;;9.73;;
51384;SDS011;37478;55.682;37.462;2022-11-20T06:22:57;20.00;;;9.85;;
51384;SDS011;37478;55.682;37.462;2022-11-20T06:25:22;20.02;;;10.23;;
51384;SDS011;37478;55.682;37.462;2022-11-20T06:27:47;18.58;;;9.63;;
51384;SDS011;37478;55.682;37.462;2022-11-20T06:30:13;20.23;;;10.65;;
51384;SDS011;37478;55.682;37.462;2022-11-20T06:32:38;21.13;;;10.05;;
51384;SDS011;37478;55.682;37.462;2022-11-20T06:35:04;15.63;;;9.02;;
51384;SDS011;37478;55.682;37.462;2022-11-20T06:37:29;19.67;;;9.55;;
51384;SDS011;37478;55.682;37.462;2022-11-20T06:39:54;20.63;;;10.02;;
51384;SDS011;37478;55.682;37.462;2022-11-20T06:42:20;19.63;;;10.88;;
51384;SDS011;37478;55.682;37.462;2022-11-20T06:44:45;20.77;;;9.55;;
51384;SDS011;37478;55.682;37.462;2022-11-20T06:47:11;21.52;;;10.45;;
51384;SDS011;37478;55.682;37.462;2022-11-20T06:49:36;18.05;;;9.40;;
51384;SDS011;37478;55.682;37.462;2022-11-20T06:52:03;16.52;;;10.15;;
51384;SDS011;37478;55.682;37.462;2022-11-20T06:54:29;21.83;;;10.15;;
51384;SDS011;37478;55.682;37.462;2022-11-20T06:56:54;20.27;;;10.13;;
51384;SDS011;37478;55.682;37.462;2022-11-20T06:59:19;23.52;;;11.23;;
51384;SDS011;37478;55.682;37.462;2022-11-20T07:01:45;22.70;;;11.02;;
51384;SDS011;37478;55.682;37.462;2022-11-20T07:04:10;20.90;;;11.10;;
51384;SDS011;37478;55.682;37.462;2022-11-20T07:06:35;17.38;;;9.75;;
51384;SDS011;37478;55.682;37.462;2022-11-20T07:09:01;19.92;;;9.57;;
51384;SDS011;37478;55.682;37.462;2022-11-20T07:11:26;21.90;;;10.75;;
51384;SDS011;37478;55.682;37.462;2022-11-20T07:13:52;22.73;;;10.38;;
51384;SDS011;37478;55.682;37.462;2022-11-20T07:16:17;22.65;;;10.48;;
51384;SDS011;37478;55.682;37.462;2022-11-20T07:18:42;21.45;;;11.07;;
51384;SDS011;37478;55.682;37.462;2022-11-20T07:21:08;21.95;;;10.48;;
51384;SDS011;37478;55.682;37.462;2022-11-20T07:23:34;20.33;;;11.15;;
51384;SDS011;37478;55.682;37.462;2022-11-20T07:26:06;22.40;;;11.43;;
51384;SDS011;37478;55.682;37.462;2022-11-20T07:28:32;27.88;;;11.98;;
51384;SDS011;37478;55.682;37.462;2022-11-20T07:30:57;24.27;;;12.00;;
51384;SDS011;37478;55.682;37.462;2022-11-20T07:33:22;21.80;;;10.70;;
51384;SDS011;37478;55.682;37.462;2022-11-20T07:35:48;21.70;;;10.80;;
51384;SDS011;37478;55.682;37.462;2022-11-20T07:38:13;24.73;;;11.63;;
51384;SDS011;37478;55.682;37.462;2022-11-20T07:40:38;21.75;;;11.80;;
51384;SDS011;37478;55.682;37.462;2022-11-20T07:43:04;30.38;;;11.75;;
51384;SDS011;37478;55.682;37.462;2022-11-20T07:45:29;22.77;;;11.38;;
51384;SDS011;37478;55.682;37.462;2022-11-20T07:47:54;26.15;;;12.20;;
51384;SDS011;37478;55.682;37.462;2022-11-20T07:50:20;25.35;;;12.18;;
51384;SDS011;37478;55.682;37.462;2022-11-20T07:52:45;20.75;;;11.13;;
51384;SDS011;37478;55.682;37.462;2022-11-20T07:55:11;24.00;;;12.32;;
51384;SDS011;37478;55.682;37.462;2022-11-20T07:57:36;24.77;;;12.13;;
51384;SDS011;37478;55.682;37.462;2022-11-20T08:00:02;25.42;;;12.90;;
51384;SDS011;37478;55.682;37.462;2022-11-20T08:02:28;20.48;;;10.82;;
51384;SDS011;37478;55.682;37.462;2022-11-20T08:04:53;24.48;;;10.68;;
51384;SDS011;37478;55.682;37.462;2022-11-20T08:07:18;30.80;;;11.88;;
51384;SDS011;37478;55.682;37.462;2022-11-20T08:09:44;19.77;;;10.63;;
51384;SDS011;37478;55.682;37.462;2022-11-20T08:12:14;21.30;;;10.40;;
51384;SDS011;37478;55.682;37.462;2022-11-20T08:15:00;24.85;;;10.93;;
51384;SDS011;37478;55.682;37.462;2022-11-20T08:17:25;24.27;;;10.95;;
51384;SDS011;37478;55.682;37.462;2022-11-20T08:19:50;24.20;;;10.68;;
51384;SDS011;37478;55.682;37.462;2022-11-20T08:22:16;23.08;;;11.73;;
51384;SDS011;37478;55.682;37.462;2022-11-20T08:24:42;26.80;;;12.50;;
51384;SDS011;37478;55.682;37.462;2022-11-20T08:27:07;25.98;;;11.90;;
51384;SDS011;37478;55.682;37.462;2022-11-20T08:29:33;28.60;;;12.60;;
51384;SDS011;37478;55.682;37.462;2022-11-20T08:31:58;26.50;;;11.52;;
51384;SDS011;37478;55.682;37.462;2022-11-20T08:34:24;28.13;;;11.85;;
51384;SDS011;37478;55.682;37.462;2022-11-20T08:36:49;21.23;;;11.52;;
51384;SDS011;37478;55.682;37.462;2022-11-20T08:39:14;24.13;;;11.85;;
51384;SDS011;37478;55.682;37.462;2022-11-20T08:41:39;25.60;;;12.35;;
51384;SDS011;37478;55.682;37.462;2022-11-20T08:44:06;24.45;;;12.60;;
51384;SDS011;37478;55.682;37.462;2022-11-20T08:46:38;25.10;;;11.90;;
51384;SDS011;37478;55.682;37.462;2022-11-20T08:49:08;24.90;;;12.57;;
51384;SDS011;37478;55.682;37.462;2022-11-20T08:51:34;26.42;;;12.60;;
51384;SDS011;37478;55.682;37.462;2022-11-20T08:53:59;33.83;;;13.20;;
51384;SDS011;37478;55.682;37.462;2022-11-20T08:56:25;24.20;;;11.77;;
51384;SDS011;37478;55.682;37.462;2022-11-20T08:58:50;28.30;;;12.88;;
51384;SDS011;37478;55.682;37.462;2022-11-20T09:01:19;26.00;;;11.95;;
51384;SDS011;37478;55.682;37.462;2022-11-20T09:03:45;28.95;;;12.75;;
51384;SDS011;37478;55.682;37.462;2022-11-20T09:06:10;29.17;;;12.57;;
51384;SDS011;37478;55.682;37.462;2022-11-20T09:08:36;33.58;;;12.90;;
51384;SDS011;37478;55.682;37.462;2022-11-20T09:11:01;25.23;;;12.73;;
51384;SDS011;37478;55.682;37.462;2022-11-20T09:13:29;33.55;;;14.73;;
51384;SDS011;37478;55.682;37.462;2022-11-20T09:15:55;39.33;;;14.18;;
51384;SDS011;37478;55.682;37.462;2022-11-20T09:18:21;30.17;;;13.38;;
51384;SDS011;37478;55.682;37.462;2022-11-20T09:20:47;38.90;;;16.13;;
51384;SDS011;37478;55.682;37.462;2022-11-20T09:23:12;31.77;;;14.80;;
51384;SDS011;37478;55.682;37.462;2022-11-20T09:25:37;39.00;;;15.73;;
51384;SDS011;37478;55.682;37.462;2022-11-20T09:28:03;46.55;;;16.10;;
51384;SDS011;37478;55.682;37.462;2022-11-20T09:30:28;36.00;;;17.40;;
51384;SDS011;37478;55.682;37.462;2022-11-20T09:32:54;34.83;;;14.30;;
51384;SDS011;37478;55.682;37.462;2022-11-20T09:35:20;33.22;;;14.73;;
51384;SDS011;37478;55.682;37.462;2022-11-20T09:37:45;28.52;;;13.15;;
51384;SDS011;37478;55.682;37.462;2022-11-20T09:40:45;31.33;;;14.60;;
51384;SDS011;37478;55.682;37.462;2022-11-20T09:45:54;36.55;;;15.20;;
51384;SDS011;37478;55.682;37.462;2022-11-20T09:48:26;41.58;;;15.98;;
51384;SDS011;37478;55.682;37.462;2022-11-20T09:55:47;28.55;;;14.85;;
51384;SDS011;37478;55.682;37.462;2022-11-20T09:58:47;36.13;;;16.20;;
51384;SDS011;37478;55.682;37.462;2022-11-20T10:01:14;29.90;;;12.98;;
51384;SDS011;37478;55.682;37.462;2022-11-20T10:06:11;30.25;;;13.70;;
51384;SDS011;37478;55.682;37.462;2022-11-20T10:13:40;42.78;;;16.75;;
51384;SDS011;37478;55.682;37.462;2022-11-20T10:29:36;40.50;;;15.88;;
51384;SDS011;37478;55.682;37.462;2022-11-20T10:32:04;31.13;;;13.40;;
51384;SDS011;37478;55.682;37.462;2022-11-20T10:37:15;29.75;;;12.85;;
51384;SDS011;37478;55.682;37.462;2022-11-20T10:39:49;35.97;;;14.18;;
51384;SDS011;37478;55.682;37.462;2022-11-20T10:42:29;34.30;;;14.40;;
51384;SDS011;37478;55.682;37.462;2022-11-20T10:47:42;39.37;;;14.63;;
51384;SDS011;37478;55.682;37.462;2022-11-20T10:50:11;30.65;;;14.85;;
51384;SDS011;37478;55.682;37.462;2022-11-20T10:58:13;35.33;;;13.57;;
51384;SDS011;37478;55.682;37.462;2022-11-20T11:00:39;29.58;;;13.30;;
51384;SDS011;37478;55.682;37.462;2022-11-20T11:03:20;43.95;;;15.18;;
51384;SDS011;37478;55.682;37.462;2022-11-20T11:05:51;32.28;;;14.60;;
51384;SDS011;37478;55.682;37.462;2022-11-20T11:08:19;32.60;;;14.25;;
51384;SDS011;37478;55.682;37.462;2022-11-20T11:10:51;31.17;;;14.60;;
51384;SDS011;37478;55.682;37.462;2022-11-20T11:13:20;31.27;;;14.50;;
51384;SDS011;37478;55.682;37.462;2022-11-20T11:15:46;31.13;;;14.98;;
51384;SDS011;37478;55.682;37.462;2022-11-20T11:18:11;23.23;;;12.88;;
51384;SDS011;37478;55.682;37.462;2022-11-20T11:20:37;19.95;;;11.43;;
51384;SDS011;37478;55.682;37.462;2022-11-20T11:23:02;21.73;;;10.52;;
51384;SDS011;37478;55.682;37.462;2022-11-20T11:25:35;17.92;;;10.55;;
51384;SDS011;37478;55.682;37.462;2022-11-20T11:28:02;17.38;;;9.02;;
51384;SDS011;37478;55.682;37.462;2022-11-20T11:30:29;16.38;;;8.45;;
51384;SDS011;37478;55.682;37.462;2022-11-20T11:33:02;19.85;;;10.70;;
51384;SDS011;37478;55.682;37.462;2022-11-20T11:35:27;15.20;;;8.15;;
51384;SDS011;37478;55.682;37.462;2022-11-20T11:37:54;19.55;;;9.65;;
51384;SDS011;37478;55.682;37.462;2022-11-20T11:40:20;18.92;;;8.90;;
51384;SDS011;37478;55.682;37.462;2022-11-20T11:42:49;18.08;;;9.93;;
51384;SDS011;37478;55.682;37.462;2022-11-20T11:45:16;14.80;;;8.40;;
51384;SDS011;37478;55.682;37.462;2022-11-20T12:03:42;20.33;;;9.52;;
51384;SDS011;37478;55.682;37.462;2022-11-20T12:06:15;21.45;;;9.35;;
51384;SDS011;37478;55.682;37.462;2022-11-20T12:08:46;22.83;;;10.85;;
51384;SDS011;37478;55.682;37.462;2022-11-20T12:12:03;22.15;;;11.00;;
51384;SDS011;37478;55.682;37.462;2022-11-20T12:14:04;22.20;;;10.07;;
51384;SDS011;37478;55.682;37.462;2022-11-20T12:16:35;23.65;;;11.73;;
51384;SDS011;37478;55.682;37.462;2022-11-20T12:19:00;22.65;;;10.90;;
51384;SDS011;37478;55.682;37.462;2022-11-20T12:24:10;23.83;;;11.45;;
51384;SDS011;37478;55.682;37.462;2022-11-20T12:29:18;23.83;;;11.50;;
51384;SDS011;37478;55.682;37.462;2022-11-20T12:34:26;20.52;;;11.60;;
51384;SDS011;37478;55.682;37.462;2022-11-20T12:37:04;27.02;;;12.07;;
51384;SDS011;37478;55.682;37.462;2022-11-20T12:39:52;24.05;;;9.63;;
51384;SDS011;37478;55.682;37.462;2022-11-20T12:55:33;18.95;;;9.90;;
51384;SDS011;37478;55.682;37.462;2022-11-20T13:00:32;24.77;;;10.63;;
51384;SDS011;37478;55.682;37.462;2022-11-20T13:08:29;23.27;;;11.80;;
51384;SDS011;37478;55.682;37.462;2022-11-20T13:16:22;24.17;;;12.23;;
51384;SDS011;37478;55.682;37.462;2022-11-20T13:18:49;20.10;;;10.55;;
51384;SDS011;37478;55.682;37.462;2022-11-20T13:21:18;24.55;;;11.88;;
51384;SDS011;37478;55.682;37.462;2022-11-20T13:23:44;26.48;;;10.45;;
51384;SDS011;37478;55.682;37.462;2022-11-20T13:26:20;21.05;;;10.77;;
51384;SDS011;37478;55.682;37.462;2022-11-20T13:28:46;28.35;;;11.48;;
51384;SDS011;37478;55.682;37.462;2022-11-20T13:31:24;22.67;;;10.68;;
51384;SDS011;37478;55.682;37.462;2022-11-20T13:33:53;23.58;;;12.10;;
51384;SDS011;37478;55.682;37.462;2022-11-20T13:36:23;22.67;;;11.80;;
51384;SDS011;37478;55.682;37.462;2022-11-20T13:38:50;25.42;;;12.65;;
51384;SDS011;37478;55.682;37.462;2022-11-20T13:41:32;31.35;;;12.70;;
51384;SDS011;37478;55.682;37.462;2022-11-20T13:44:10;20.55;;;10.40;;
51384;SDS011;37478;55.682;37.462;2022-11-20T13:46:44;27.45;;;10.55;;
51384;SDS011;37478;55.682;37.462;2022-11-20T13:49:16;18.05;;;9.55;;
51384;SDS011;37478;55.682;37.462;2022-11-20T13:51:43;22.88;;;11.35;;
51384;SDS011;37478;55.682;37.462;2022-11-20T13:54:27;26.35;;;11.43;;
51384;SDS011;37478;55.682;37.462;2022-11-20T13:57:59;18.65;;;9.88;;
51384;SDS011;37478;55.682;37.462;2022-11-20T14:00:00;20.42;;;10.05;;
51384;SDS011;37478;55.682;37.462;2022-11-20T14:02:27;23.42;;;10.00;;
51384;SDS011;37478;55.682;37.462;2022-11-20T14:04:56;19.35;;;11.38;;
51384;SDS011;37478;55.682;37.462;2022-11-20T14:07:24;17.35;;;9.48;;
51384;SDS011;37478;55.682;37.462;2022-11-20T14:09:51;21.85;;;11.32;;
51384;SDS011;37478;55.682;37.462;2022-11-20T14:12:18;19.92;;;10.10;;
51384;SDS011;37478;55.682;37.462;2022-11-20T14:14:48;21.10;;;11.02;;
51384;SDS011;37478;55.682;37.462;2022-11-20T14:19:45;24.30;;;11.68;;
51384;SDS011;37478;55.682;37.462;2022-11-20T14:22:24;19.58;;;10.50;;
51384;SDS011;37478;55.682;37.462;2022-11-20T14:27:33;17.92;;;9.18;;
51384;SDS011;37478;55.682;37.462;2022-11-20T14:30:00;21.23;;;10.25;;
51384;SDS011;37478;55.682;37.462;2022-11-20T14:32:26;21.55;;;9.98;;
51384;SDS011;37478;55.682;37.462;2022-11-20T14:34:53;24.45;;;10.90;;
51384;SDS011;37478;55.682;37.462;2022-11-20T14:37:23;22.42;;;9.82;;
51384;SDS011;37478;55.682;37.462;2022-11-20T14:39:53;20.90;;;10.50;;
51384;SDS011;37478;55.682;37.462;2022-11-20T14:42:20;20.73;;;10.88;;
51384;SDS011;37478;55.682;37.462;2022-11-20T14:44:46;19.02;;;10.32;;
51384;SDS011;37478;55.682;37.462;2022-11-20T14:47:13;19.95;;;10.18;;
51384;SDS011;37478;55.682;37.462;2022-11-20T14:49:38;24.25;;;11.40;;
51384;SDS011;37478;55.682;37.462;2022-11-20T14:54:56;23.52;;;10.15;;
51384;SDS011;37478;55.682;37.462;2022-11-20T14:57:34;20.73;;;9.80;;
51384;SDS011;37478;55.682;37.462;2022-11-20T15:02:41;22.05;;;9.95;;
51384;SDS011;37478;55.682;37.462;2022-11-20T15:05:06;21.77;;;10.80;;
51384;SDS011;37478;55.682;37.462;2022-11-20T15:07:33;21.50;;;11.70;;
51384;SDS011;37478;55.682;37.462;2022-11-20T15:10:06;18.67;;;8.65;;
51384;SDS011;37478;55.682;37.462;2022-11-20T15:12:32;25.75;;;9.93;;
51384;SDS011;37478;55.682;37.462;2022-11-20T15:14:58;19.42;;;10.30;;
51384;SDS011;37478;55.682;37.462;2022-11-20T15:17:24;23.75;;;9.52;;
51384;SDS011;37478;55.682;37.462;2022-11-20T15:19:50;20.50;;;10.57;;
51384;SDS011;37478;55.682;37.462;2022-11-20T15:22:15;17.02;;;8.63;;
51384;SDS011;37478;55.682;37.462;2022-11-20T15:24:44;18.85;;;10.27;;
51384;SDS011;37478;55.682;37.462;2022-11-20T15:27:09;20.23;;;9.00;;
51384;SDS011;37478;55.682;37.462;2022-11-20T15:29:35;18.52;;;10.35;;
51384;SDS011;37478;55.682;37.462;2022-11-20T15:32:00;19.23;;;9.23;;
51384;SDS011;37478;55.682;37.462;2022-11-20T15:34:26;24.00;;;10.73;;
51384;SDS011;37478;55.682;37.462;2022-11-20T15:36:51;24.85;;;10.55;;
51384;SDS011;37478;55.682;37.462;2022-11-20T15:39:17;20.98;;;10.57;;
51384;SDS011;37478;55.682;37.462;2022-11-20T15:41:43;16.65;;;9.90;;
51384;SDS011;37478;55.682;37.462;2022-11-20T15:44:08;19.90;;;10.20;;
51384;SDS011;37478;55.682;37.462;2022-11-20T15:46:35;17.40;;;9.88;;
51384;SDS011;37478;55.682;37.462;2022-11-20T15:49:05;22.60;;;11.55;;
51384;SDS011;37478;55.682;37.462;2022-11-20T15:51:31;22.55;;;9.70;;
51384;SDS011;37478;55.682;37.462;2022-11-20T15:53:58;21.95;;;10.45;;
51384;SDS011;37478;55.682;37.462;2022-11-20T15:56:23;21.48;;;11.02;;
51384;SDS011;37478;55.682;37.462;2022-11-20T15:58:49;19.65;;;10.25;;
51384;SDS011;37478;55.682;37.462;2022-11-20T16:01:15;24.38;;;10.30;;
51384;SDS011;37478;55.682;37.462;2022-11-20T16:03:41;23.40;;;11.77;;
51384;SDS011;37478;55.682;37.462;2022-11-20T16:06:06;23.75;;;12.25;;
51384;SDS011;37478;55.682;37.462;2022-11-20T16:08:32;18.98;;;10.27;;